Jedburgh, United Kingdom
Current Conditions -  °F | °C
As of 5:50 PM on Friday 28 Nov 2014 (Local Time) from EGOM Reporting Station
Haze Haze  
Wind Chill: 41°   Ceiling: 100
Heat Index: 46°   Visibility: 1.7mi
Dew Point: 46°   Wind: 10mph
Humidity: 100%   Direction: 70°ENE
Pressure: 29.8"   Gusts: NA
Location:  55.48°N, 2.55°W
Report Text: EGOM 281750Z AUTO 07009KT 2800 BR OVC001/// 08/08 Q1009 RERA
Loading
Personal Weather Stations






























Interactive Weather Map New forecast layout! Learn more

10-Day Weather Forecast

Advertisements
Track Severe Weather on mobile